DEOHL EDFH-ZZZZ
Flight info
| Callsign | DEOHL |
|---|---|
| Flight time | N/A |
| Altitude | |
| Route | |
| Aircraft | BE35 |
Departure
| Time | 2026-05-07 15:23 |
|---|---|
| Airport | Frankfurt-Hahn Airport (EDFH) |
Arrival
| Time | N/A |
|---|---|
| Airport | ZZZZ |
| Time | Latitude | Longitude | Altitude | Speed | Heading |
|---|---|---|---|---|---|
| 2026-05-07 15:19 | 49.94325 | 7.26467 | 1650 ft | 0 kts | 125° |
| 2026-05-07 15:19 | 49.94310 | 7.26473 | 1650 ft | 8 kts | 204° |
| 2026-05-07 15:19 | 49.94316 | 7.26413 | 1650 ft | 5 kts | 315° |
| 2026-05-07 15:20 | 49.94352 | 7.26424 | 1650 ft | 11 kts | 38° |
| 2026-05-07 15:20 | 49.94411 | 7.26479 | 1649 ft | 3 kts | 8° |
| 2026-05-07 15:20 | 49.94456 | 7.26416 | 1648 ft | 11 kts | 302° |
| 2026-05-07 15:20 | 49.94488 | 7.26339 | 1648 ft | 14 kts | 303° |
| 2026-05-07 15:21 | 49.94544 | 7.26204 | 1649 ft | 12 kts | 302° |
| 2026-05-07 15:21 | 49.94571 | 7.26101 | 1649 ft | 7 kts | 228° |
| 2026-05-07 15:21 | 49.94563 | 7.26090 | 1649 ft | 0 kts | 211° |
| 2026-05-07 15:22 | 49.94544 | 7.26071 | 1649 ft | 25 kts | 212° |
| 2026-05-07 15:22 | 49.94183 | 7.25734 | 1679 ft | 89 kts | 211° |
| 2026-05-07 15:23 | 49.93584 | 7.25779 | 1929 ft | 110 kts | 113° |
| 2026-05-07 15:23 | 49.93508 | 7.27015 | 2274 ft | 121 kts | 98° |
| 2026-05-07 15:23 | 49.93054 | 7.28180 | 2461 ft | 142 kts | 147° |
| 2026-05-07 15:23 | 49.92163 | 7.29088 | 2477 ft | 163 kts | 147° |
| 2026-05-07 15:24 | 49.91173 | 7.30114 | 2422 ft | 174 kts | 147° |
| 2026-05-07 15:24 | 49.90179 | 7.31103 | 2389 ft | 166 kts | 148° |
| 2026-05-07 15:24 | 49.89198 | 7.32051 | 2461 ft | 163 kts | 149° |
| 2026-05-07 15:24 | 49.88253 | 7.32951 | 2442 ft | 160 kts | 149° |
| 2026-05-07 15:25 | 49.87310 | 7.33831 | 2467 ft | 155 kts | 144° |
| 2026-05-07 15:25 | 49.86794 | 7.35259 | 2417 ft | 157 kts | 98° |
| 2026-05-07 15:25 | 49.86812 | 7.36922 | 2394 ft | 156 kts | 87° |
| 2026-05-07 15:25 | 49.86849 | 7.38616 | 2331 ft | 158 kts | 89° |
| 2026-05-07 15:26 | 49.86861 | 7.40336 | 2265 ft | 160 kts | 90° |
| 2026-05-07 15:26 | 49.86849 | 7.42051 | 2240 ft | 159 kts | 91° |
| 2026-05-07 15:26 | 49.86827 | 7.43750 | 2250 ft | 156 kts | 91° |
| 2026-05-07 15:26 | 49.86790 | 7.45419 | 2246 ft | 154 kts | 92° |
| 2026-05-07 15:27 | 49.86752 | 7.47105 | 2199 ft | 163 kts | 92° |
| 2026-05-07 15:27 | 49.86708 | 7.48958 | 2198 ft | 177 kts | 92° |
| 2026-05-07 15:27 | 49.86650 | 7.50799 | 2197 ft | 167 kts | 93° |
| 2026-05-07 15:27 | 49.86588 | 7.52559 | 2194 ft | 161 kts | 93° |
| 2026-05-07 15:28 | 49.86533 | 7.54275 | 2165 ft | 159 kts | 92° |
| 2026-05-07 15:28 | 49.86495 | 7.55980 | 2070 ft | 162 kts | 92° |
| 2026-05-07 15:28 | 49.86188 | 7.57585 | 2005 ft | 160 kts | 138° |
| 2026-05-07 15:28 | 49.85314 | 7.58640 | 1952 ft | 160 kts | 130° |
| 2026-05-07 15:29 | 49.84976 | 7.60265 | 1838 ft | 164 kts | 87° |
| 2026-05-07 15:29 | 49.85115 | 7.62012 | 1788 ft | 161 kts | 83° |
| 2026-05-07 15:29 | 49.85275 | 7.63719 | 1781 ft | 160 kts | 81° |
| 2026-05-07 15:29 | 49.85454 | 7.65419 | 1774 ft | 166 kts | 80° |
| 2026-05-07 15:30 | 49.85654 | 7.67234 | 1804 ft | 171 kts | 81° |
| 2026-05-07 15:30 | 49.85828 | 7.69112 | 1783 ft | 182 kts | 82° |
| 2026-05-07 15:30 | 49.85992 | 7.71077 | 1672 ft | 181 kts | 83° |
| 2026-05-07 15:30 | 49.86138 | 7.73005 | 1491 ft | 175 kts | 83° |
| 2026-05-07 15:31 | 49.86280 | 7.74783 | 1458 ft | 168 kts | 83° |
| 2026-05-07 15:31 | 49.86401 | 7.76567 | 1399 ft | 165 kts | 85° |
| 2026-05-07 15:31 | 49.86486 | 7.78335 | 1312 ft | 165 kts | 87° |
| 2026-05-07 15:31 | 49.86529 | 7.80115 | 1228 ft | 165 kts | 89° |
| 2026-05-07 15:32 | 49.86545 | 7.81881 | 1184 ft | 163 kts | 90° |
| 2026-05-07 15:32 | 49.86521 | 7.83647 | 1138 ft | 157 kts | 92° |
| 2026-05-07 15:32 | 49.86554 | 7.85196 | 1078 ft | 139 kts | 79° |
| 2026-05-07 15:32 | 49.86853 | 7.86589 | 1003 ft | 128 kts | 64° |
| 2026-05-07 15:33 | 49.87275 | 7.87715 | 900 ft | 121 kts | 57° |
| 2026-05-07 15:33 | 49.87775 | 7.88781 | 862 ft | 125 kts | 45° |
| 2026-05-07 15:33 | 49.88451 | 7.89497 | 739 ft | 112 kts | 25° |
| 2026-05-07 15:33 | 49.89176 | 7.89935 | 624 ft | 111 kts | 18° |
| 2026-05-07 15:34 | 49.89835 | 7.90286 | 504 ft | 98 kts | 18° |
| 2026-05-07 15:34 | 49.90447 | 7.90593 | 355 ft | 86 kts | 16° |
| 2026-05-07 15:34 | 49.90948 | 7.90834 | 317 ft | 85 kts | 19° |
| 2026-05-07 15:34 | 49.91630 | 7.90946 | 531 ft | 118 kts | 352° |
| 2026-05-07 15:35 | 49.92525 | 7.91009 | 673 ft | 147 kts | 26° |
| 2026-05-07 15:35 | 49.93357 | 7.92128 | 726 ft | 166 kts | 42° |
| 2026-05-07 15:35 | 49.94314 | 7.93193 | 845 ft | 173 kts | 28° |
| 2026-05-07 15:35 | 49.95440 | 7.93969 | 878 ft | 180 kts | 19° |
| 2026-05-07 15:36 | 49.96653 | 7.93910 | 940 ft | 179 kts | 329° |
| 2026-05-07 15:36 | 49.97368 | 7.92385 | 1056 ft | 176 kts | 286° |
| 2026-05-07 15:36 | 49.97384 | 7.90502 | 1181 ft | 176 kts | 263° |
| 2026-05-07 15:36 | 49.97240 | 7.88636 | 1335 ft | 174 kts | 263° |
| 2026-05-07 15:37 | 49.97049 | 7.86773 | 1438 ft | 176 kts | 260° |
| 2026-05-07 15:37 | 49.96822 | 7.84912 | 1577 ft | 175 kts | 258° |
| 2026-05-07 15:37 | 49.96551 | 7.83072 | 1709 ft | 175 kts | 257° |
| 2026-05-07 15:37 | 49.96265 | 7.81227 | 1817 ft | 176 kts | 256° |
| 2026-05-07 15:38 | 49.95972 | 7.79402 | 1962 ft | 174 kts | 257° |
| 2026-05-07 15:38 | 49.95694 | 7.77555 | 1988 ft | 180 kts | 257° |
| 2026-05-07 15:38 | 49.95403 | 7.75649 | 2006 ft | 181 kts | 257° |
| 2026-05-07 15:38 | 49.95106 | 7.73754 | 2081 ft | 180 kts | 256° |
| 2026-05-07 15:39 | 49.94799 | 7.71887 | 2183 ft | 178 kts | 256° |
| 2026-05-07 15:39 | 49.94493 | 7.70033 | 2283 ft | 178 kts | 256° |
| 2026-05-07 15:39 | 49.94183 | 7.68190 | 2438 ft | 173 kts | 256° |
| 2026-05-07 15:39 | 49.93902 | 7.66397 | 2657 ft | 167 kts | 258° |
| 2026-05-07 15:40 | 49.93778 | 7.64634 | 2884 ft | 165 kts | 275° |
| 2026-05-07 15:40 | 49.93981 | 7.62855 | 2980 ft | 170 kts | 285° |
| 2026-05-07 15:40 | 49.94299 | 7.61058 | 3028 ft | 174 kts | 285° |
| 2026-05-07 15:40 | 49.94623 | 7.59236 | 3091 ft | 176 kts | 285° |
| 2026-05-07 15:41 | 49.94958 | 7.57395 | 3120 ft | 178 kts | 286° |
| 2026-05-07 15:41 | 49.95302 | 7.55545 | 3179 ft | 179 kts | 285° |
| 2026-05-07 15:41 | 49.95601 | 7.53755 | 3247 ft | 162 kts | 284° |
| 2026-05-07 15:41 | 49.95902 | 7.52119 | 3261 ft | 157 kts | 286° |
| 2026-05-07 15:42 | 49.96209 | 7.50508 | 3195 ft | 159 kts | 287° |
| 2026-05-07 15:42 | 49.96515 | 7.48833 | 3072 ft | 163 kts | 285° |
| 2026-05-07 15:42 | 49.96683 | 7.47161 | 3143 ft | 154 kts | 264° |
| 2026-05-07 15:42 | 49.96519 | 7.45514 | 3102 ft | 154 kts | 259° |
| 2026-05-07 15:43 | 49.96334 | 7.43880 | 3067 ft | 153 kts | 263° |
| 2026-05-07 15:43 | 49.96263 | 7.42232 | 2984 ft | 150 kts | 267° |
| 2026-05-07 15:43 | 49.96229 | 7.40671 | 2795 ft | 141 kts | 269° |
| 2026-05-07 15:43 | 49.96192 | 7.39185 | 2635 ft | 134 kts | 267° |
| 2026-05-07 15:44 | 49.96141 | 7.37774 | 2492 ft | 128 kts | 267° |
| 2026-05-07 15:44 | 49.96117 | 7.36425 | 2378 ft | 125 kts | 273° |
| 2026-05-07 15:44 | 49.96280 | 7.35104 | 2320 ft | 126 kts | 289° |
| 2026-05-07 15:44 | 49.96618 | 7.33851 | 2267 ft | 125 kts | 295° |
| 2026-05-07 15:45 | 49.97009 | 7.32600 | 2138 ft | 125 kts | 296° |
| 2026-05-07 15:45 | 49.97377 | 7.31484 | 2137 ft | 114 kts | 296° |
| 2026-05-07 15:45 | 49.97652 | 7.30382 | 2128 ft | 108 kts | 271° |
| 2026-05-07 15:45 | 49.97434 | 7.29276 | 2080 ft | 109 kts | 239° |
| 2026-05-07 15:46 | 49.96432 | 7.27927 | 1824 ft | 92 kts | 212° |
| 2026-05-07 15:46 | 49.95875 | 7.27388 | 1715 ft | 93 kts | 213° |
| 2026-05-07 15:46 | 49.95387 | 7.26912 | 1636 ft | 64 kts | 212° |
| 2026-05-07 15:47 | 49.95089 | 7.26613 | 1641 ft | 42 kts | 213° |
| 2026-05-07 15:47 | 49.94871 | 7.26397 | 1644 ft | 34 kts | 212° |
| 2026-05-07 15:47 | 49.94662 | 7.26191 | 1646 ft | 29 kts | 211° |
| 2026-05-07 15:47 | 49.94562 | 7.26160 | 1649 ft | 10 kts | 124° |
| 2026-05-07 15:48 | 49.94526 | 7.26248 | 1649 ft | 9 kts | 122° |
| 2026-05-07 15:48 | 49.94479 | 7.26358 | 1648 ft | 15 kts | 123° |
| 2026-05-07 15:48 | 49.94427 | 7.26473 | 1648 ft | 10 kts | 151° |
| 2026-05-07 15:48 | 49.94369 | 7.26442 | 1649 ft | 11 kts | 213° |
| 2026-05-07 15:49 | 49.94307 | 7.26415 | 1650 ft | 8 kts | 144° |
| 2026-05-07 15:49 | 49.94295 | 7.26433 | 1650 ft | 0 kts | 124° |